createdAt,value
2019-04-20T00:01:36.038Z,14.70
2019-04-20T00:04:10.801Z,14.70
2019-04-20T00:06:43.463Z,14.60
2019-04-20T00:09:17.134Z,14.50
2019-04-20T00:11:49.368Z,14.50
2019-04-20T00:14:17.232Z,14.40
2019-04-20T00:16:44.176Z,14.30
2019-04-20T00:19:15.337Z,14.30
2019-04-20T00:21:53.684Z,14.20
2019-04-20T00:24:24.766Z,14.10
2019-04-20T00:27:14.604Z,14.10
2019-04-20T00:29:40.494Z,14.00
2019-04-20T00:32:05.382Z,14.00
2019-04-20T00:34:29.478Z,14.00
2019-04-20T00:36:54.147Z,13.90
2019-04-20T00:39:23.868Z,13.90
2019-04-20T00:41:58.946Z,13.90
2019-04-20T00:44:29.709Z,13.90
2019-04-20T00:47:11.143Z,13.90
2019-04-20T00:49:38.843Z,13.90
2019-04-20T00:52:26.735Z,13.80
2019-04-20T00:54:28.507Z,13.80
2019-04-20T00:57:09.352Z,13.80
2019-04-20T00:59:43.060Z,13.80
2019-04-20T01:02:19.180Z,13.80
2019-04-20T01:04:53.620Z,13.70
2019-04-20T01:07:20.342Z,13.70
2019-04-20T01:09:56.241Z,13.70
2019-04-20T01:12:28.553Z,13.60
2019-04-20T01:15:01.248Z,13.60
2019-04-20T01:17:27.939Z,13.50
2019-04-20T01:19:57.239Z,13.50
2019-04-20T01:22:28.596Z,13.40
2019-04-20T01:25:06.901Z,13.30
2019-04-20T01:27:42.136Z,13.30
2019-04-20T01:30:10.454Z,13.20
2019-04-20T01:32:50.714Z,13.10
2019-04-20T01:35:18.057Z,13.10
2019-04-20T01:37:52.915Z,13.00
2019-04-20T01:40:08.273Z,13.00
2019-04-20T01:42:38.313Z,12.90
2019-04-20T01:45:14.550Z,12.80
2019-04-20T01:47:45.826Z,12.70
2019-04-20T01:50:18.605Z,12.70
2019-04-20T01:52:53.851Z,12.60
2019-04-20T01:55:42.519Z,12.50
2019-04-20T01:58:25.406Z,12.40
2019-04-20T02:00:42.069Z,12.30
2019-04-20T02:03:34.151Z,12.20
2019-04-20T02:06:07.265Z,12.20
2019-04-20T02:08:32.342Z,12.10
2019-04-20T02:11:05.660Z,12.00
2019-04-20T02:13:43.572Z,12.00
2019-04-20T02:16:11.544Z,11.90
2019-04-20T02:18:46.601Z,11.80
2019-04-20T02:21:24.185Z,11.80
2019-04-20T02:23:46.210Z,11.70
2019-04-20T02:26:09.201Z,11.70
2019-04-20T02:29:06.029Z,11.60
2019-04-20T02:34:24.006Z,11.50
2019-04-20T02:37:07.615Z,11.50
2019-04-20T02:39:37.816Z,11.40
2019-04-20T02:47:14.411Z,11.30
2019-04-20T02:49:51.876Z,11.20
2019-04-20T03:01:59.477Z,10.90
2019-04-20T03:04:23.350Z,10.90
2019-04-20T03:06:58.369Z,10.80
2019-04-20T03:09:36.917Z,10.80
2019-04-20T03:12:08.772Z,10.80
2019-04-20T03:14:31.892Z,10.70
2019-04-20T03:17:09.826Z,10.60
2019-04-20T03:19:32.816Z,10.60
2019-04-20T03:22:13.476Z,10.50
2019-04-20T03:24:45.440Z,10.50
2019-04-20T03:27:10.829Z,10.40
2019-04-20T03:30:05.864Z,10.40
2019-04-20T03:35:22.606Z,10.30
2019-04-20T03:37:42.572Z,10.20
2019-04-20T03:40:05.507Z,10.20
2019-04-20T03:42:20.088Z,10.20
2019-04-20T03:44:57.915Z,10.10
2019-04-20T03:47:30.367Z,10.00
2019-04-20T03:50:11.731Z,10.00
2019-04-20T03:52:43.667Z,10.00
2019-04-20T03:55:16.089Z,9.90
2019-04-20T03:58:04.487Z,9.90
2019-04-20T04:00:36.515Z,9.80
2019-04-20T04:03:22.811Z,9.70
2019-04-20T04:05:45.906Z,9.70
2019-04-20T04:08:10.654Z,9.60
2019-04-20T04:10:50.171Z,9.60
2019-04-20T04:13:09.973Z,9.50
2019-04-20T04:15:47.805Z,9.50
2019-04-20T04:18:19.771Z,9.40
2019-04-20T04:20:52.104Z,9.40
2019-04-20T04:23:33.633Z,9.40
2019-04-20T04:26:05.712Z,9.30
2019-04-20T04:28:31.405Z,9.30
2019-04-20T04:31:11.041Z,9.20
2019-04-20T04:33:53.190Z,9.20
2019-04-20T04:36:08.681Z,9.10
2019-04-20T04:38:41.867Z,9.10
2019-04-20T04:41:19.943Z,9.10
2019-04-20T04:43:40.162Z,9.10
2019-04-20T04:45:55.537Z,9.00
2019-04-20T04:48:31.507Z,9.10
2019-04-20T04:51:01.273Z,9.00
2019-04-20T04:53:39.589Z,9.00
2019-04-20T04:56:04.908Z,9.00
2019-04-20T04:58:29.801Z,9.00
2019-04-20T05:01:05.727Z,9.00
2019-04-20T05:03:44.712Z,8.90
2019-04-20T05:06:25.039Z,8.90
2019-04-20T05:08:43.594Z,8.90
2019-04-20T05:11:08.986Z,8.90
2019-04-20T05:13:47.948Z,8.90
2019-04-20T05:16:33.756Z,8.90
2019-04-20T05:19:03.400Z,8.90
2019-04-20T05:21:34.198Z,8.90
2019-04-20T05:24:07.601Z,9.00
2019-04-20T05:26:45.962Z,9.00
2019-04-20T05:29:04.611Z,9.10
2019-04-20T05:31:34.881Z,9.10
2019-04-20T05:34:20.163Z,9.20
2019-04-20T05:36:45.130Z,9.20
2019-04-20T05:41:48.191Z,9.40
2019-04-20T05:44:19.290Z,9.40
2019-04-20T05:46:58.545Z,9.50
2019-04-20T05:49:26.913Z,9.60
2019-04-20T05:51:54.654Z,9.70
2019-04-20T05:54:32.249Z,9.80
2019-04-20T05:57:10.305Z,10.00
2019-04-20T05:59:27.036Z,10.10
2019-04-20T06:02:07.622Z,10.10
2019-04-20T06:04:46.288Z,10.20
2019-04-20T06:07:09.186Z,10.40
2019-04-20T06:09:34.159Z,10.40
2019-04-20T06:12:17.875Z,10.60
2019-04-20T06:14:48.222Z,10.70
2019-04-20T06:17:26.637Z,10.70
2019-04-20T06:20:02.271Z,10.90
2019-04-20T06:22:41.406Z,11.00
2019-04-20T06:25:33.409Z,11.20
2019-04-20T06:27:49.273Z,11.30
2019-04-20T06:30:11.082Z,11.40
2019-04-20T06:33:37.377Z,11.50
2019-04-20T06:36:07.583Z,11.60
2019-04-20T06:38:46.576Z,11.80
2019-04-20T06:41:05.229Z,11.90
2019-04-20T06:43:36.769Z,12.10
2019-04-20T06:46:07.090Z,12.20
2019-04-20T06:48:34.948Z,12.40
2019-04-20T06:50:57.095Z,12.50
2019-04-20T06:53:46.574Z,12.70
2019-04-20T06:56:15.703Z,12.80
2019-04-20T07:01:10.862Z,13.10
2019-04-20T07:04:18.735Z,13.30
2019-04-20T07:06:29.594Z,13.40
2019-04-20T07:08:56.936Z,13.60
2019-04-20T07:11:18.718Z,13.80
2019-04-20T07:13:37.433Z,13.90
2019-04-20T07:16:29.744Z,14.10
2019-04-20T07:19:07.362Z,14.30
2019-04-20T07:22:14.961Z,14.50
2019-04-20T07:24:46.065Z,14.60
2019-04-20T07:27:06.140Z,14.70
2019-04-20T07:29:40.738Z,14.80
2019-04-20T07:32:07.857Z,14.90
2019-04-20T07:34:38.765Z,15.10
2019-04-20T07:39:54.235Z,15.50
2019-04-20T07:42:24.257Z,15.70
2019-04-20T07:44:54.911Z,15.80
2019-04-20T07:47:32.861Z,16.00
2019-04-20T07:49:49.781Z,16.20
2019-04-20T07:52:04.035Z,16.30
2019-04-20T07:55:12.149Z,16.50
2019-04-20T07:57:24.433Z,16.60
2019-04-20T07:59:55.934Z,16.70
2019-04-20T08:02:42.589Z,16.80
2019-04-20T08:05:10.606Z,16.90
2019-04-20T08:07:39.197Z,16.90
2019-04-20T08:10:03.957Z,17.00
2019-04-20T08:12:55.917Z,17.20
2019-04-20T08:17:55.257Z,17.40
2019-04-20T08:20:25.773Z,17.50
2019-04-20T08:22:58.775Z,17.70
2019-04-20T08:25:20.294Z,17.70
2019-04-20T08:27:40.273Z,17.80
2019-04-20T08:30:32.256Z,17.90
2019-04-20T08:32:58.101Z,18.00
2019-04-20T08:35:39.305Z,18.10
2019-04-20T08:38:32.606Z,18.20
2019-04-20T08:40:41.902Z,18.20
2019-04-20T08:43:21.025Z,18.40
2019-04-20T08:45:48.761Z,18.40
2019-04-20T08:48:21.051Z,18.50
2019-04-20T08:50:45.216Z,18.60
2019-04-20T08:53:23.178Z,18.70
2019-04-20T08:55:41.550Z,18.80
2019-04-20T08:57:56.959Z,18.80
2019-04-20T09:00:33.110Z,18.90
2019-04-20T09:03:05.734Z,19.00
2019-04-20T09:05:41.556Z,19.10
2019-04-20T09:08:09.238Z,19.20
2019-04-20T09:10:49.184Z,19.30
2019-04-20T09:13:12.070Z,19.30
2019-04-20T09:15:34.197Z,19.40
2019-04-20T09:18:22.752Z,19.50
2019-04-20T09:20:50.720Z,19.60
2019-04-20T09:23:35.183Z,19.70
2019-04-20T09:26:06.015Z,19.70
2019-04-20T09:28:28.511Z,19.80
2019-04-20T09:31:18.129Z,19.90
2019-04-20T09:34:02.547Z,19.90
2019-04-20T09:36:46.239Z,20.00
2019-04-20T09:39:30.456Z,20.00
2019-04-20T09:42:08.297Z,20.10
2019-04-20T09:44:42.687Z,20.10
2019-04-20T09:47:10.546Z,20.20
2019-04-20T09:49:52.908Z,20.30
2019-04-20T09:52:27.853Z,20.40
2019-04-20T09:54:59.310Z,20.40
2019-04-20T09:57:33.390Z,20.50
2019-04-20T10:00:04.230Z,20.60
2019-04-20T10:02:23.106Z,20.80
2019-04-20T10:04:47.336Z,20.90
2019-04-20T10:07:21.109Z,21.00
2019-04-20T10:09:49.008Z,21.00
2019-04-20T10:12:19.747Z,21.10
2019-04-20T10:14:49.191Z,21.10
2019-04-20T10:17:18.508Z,21.20
2019-04-20T10:19:48.355Z,21.30
2019-04-20T10:22:18.440Z,21.30
2019-04-20T10:24:50.321Z,21.40
2019-04-20T10:27:18.823Z,21.50
2019-04-20T10:29:49.263Z,21.50
2019-04-20T10:32:19.724Z,21.60
2019-04-20T10:34:50.556Z,21.70
2019-04-20T10:37:21.763Z,21.80
2019-04-20T10:39:52.327Z,21.80
2019-04-20T10:42:21.780Z,21.80
2019-04-20T10:44:54.928Z,21.90
2019-04-20T10:47:23.058Z,21.90
2019-04-20T10:49:53.445Z,22.00
2019-04-20T10:52:23.603Z,22.10
2019-04-20T10:54:54.315Z,22.10
2019-04-20T10:57:25.764Z,22.20
2019-04-20T10:59:55.398Z,22.20
2019-04-20T11:02:25.855Z,22.20
2019-04-20T11:04:56.879Z,22.30
2019-04-20T11:07:26.496Z,22.30
2019-04-20T11:10:10.626Z,22.50
2019-04-20T11:12:28.345Z,22.60
2019-04-20T11:14:58.683Z,22.80
2019-04-20T11:17:30.052Z,22.90
2019-04-20T11:19:59.222Z,23.00
2019-04-20T11:22:28.630Z,23.10
2019-04-20T11:24:58.588Z,23.10
2019-04-20T11:27:30.017Z,23.20
2019-04-20T11:30:00.214Z,23.20
2019-04-20T11:32:30.410Z,23.30
2019-04-20T11:35:02.252Z,23.40
2019-04-20T11:37:31.013Z,23.40
2019-04-20T11:40:01.311Z,23.50
2019-04-20T11:42:32.011Z,23.50
2019-04-20T11:45:02.637Z,23.60
2019-04-20T11:47:32.157Z,23.70
2019-04-20T11:50:03.778Z,23.80
2019-04-20T11:52:38.831Z,23.90
2019-04-20T11:55:08.551Z,24.00
2019-04-20T11:57:37.961Z,24.10
2019-04-20T12:00:11.033Z,24.10
2019-04-20T12:02:47.783Z,24.20
2019-04-20T12:05:28.328Z,24.30
2019-04-20T12:08:02.961Z,24.30
2019-04-20T12:10:33.164Z,24.40
2019-04-20T12:13:03.846Z,24.60
2019-04-20T12:15:35.632Z,24.70
2019-04-20T12:18:05.337Z,24.70
2019-04-20T12:20:34.745Z,24.60
2019-04-20T12:23:04.366Z,24.60
2019-04-20T12:25:36.709Z,24.70
2019-04-20T12:28:05.837Z,24.80
2019-04-20T12:30:35.499Z,25.00
2019-04-20T12:33:05.761Z,25.10
2019-04-20T12:35:36.181Z,25.10
2019-04-20T12:38:05.534Z,25.00
2019-04-20T12:40:35.448Z,25.10
2019-04-20T12:43:04.795Z,25.20
2019-04-20T12:45:35.562Z,25.30
2019-04-20T12:48:05.786Z,25.50
2019-04-20T12:50:35.351Z,25.70
2019-04-20T12:53:04.783Z,25.80
2019-04-20T12:55:34.722Z,25.90
2019-04-20T12:58:04.896Z,26.00
2019-04-20T13:00:45.942Z,26.10
2019-04-20T13:03:15.433Z,26.30
2019-04-20T13:05:45.823Z,26.50
2019-04-20T13:08:23.283Z,26.60
2019-04-20T13:10:48.783Z,26.80
2019-04-20T13:13:34.457Z,27.10
2019-04-20T13:16:08.337Z,27.30
2019-04-20T13:18:55.237Z,27.40
2019-04-20T13:21:25.036Z,27.60
2019-04-20T13:23:55.287Z,27.90
2019-04-20T13:26:26.851Z,28.10
2019-04-20T13:28:57.158Z,28.20
2019-04-20T13:31:26.483Z,28.10
2019-04-20T13:33:57.396Z,28.10
2019-04-20T13:36:26.690Z,28.10
2019-04-20T13:38:56.351Z,27.90
2019-04-20T13:41:25.821Z,27.80
2019-04-20T13:43:57.802Z,27.80
2019-04-20T13:46:27.189Z,27.80
2019-04-20T13:48:57.336Z,27.90
2019-04-20T13:51:26.710Z,28.00
2019-04-20T13:53:57.284Z,28.00
2019-04-20T13:56:28.014Z,28.10
2019-04-20T13:58:59.017Z,28.20
2019-04-20T14:01:36.990Z,28.30
2019-04-20T14:04:20.956Z,28.30
2019-04-20T14:06:51.191Z,28.40
2019-04-20T14:09:21.346Z,28.50
2019-04-20T14:11:51.776Z,28.60
2019-04-20T14:14:21.397Z,28.80
2019-04-20T14:16:50.937Z,29.00
2019-04-20T14:19:21.025Z,29.00
2019-04-20T14:21:50.398Z,29.00
2019-04-20T14:24:19.678Z,29.00
2019-04-20T14:26:50.787Z,29.00
2019-04-20T14:29:20.875Z,29.00
2019-04-20T14:31:50.223Z,28.90
2019-04-20T14:34:20.664Z,28.90
2019-04-20T14:36:50.913Z,29.00
2019-04-20T14:39:20.424Z,29.00
2019-04-20T14:41:49.772Z,29.10
2019-04-20T14:44:19.599Z,29.20
2019-04-20T14:46:49.718Z,29.30
2019-04-20T14:49:19.068Z,29.40
2019-04-20T14:51:48.344Z,29.60
2019-04-20T14:54:17.635Z,29.60
2019-04-20T14:56:47.537Z,29.50
2019-04-20T14:59:19.732Z,29.40
2019-04-20T15:01:50.812Z,29.50
2019-04-20T15:04:23.215Z,29.50
2019-04-20T15:06:51.067Z,29.60
2019-04-20T15:09:21.050Z,29.50
2019-04-20T15:11:50.760Z,29.50
2019-04-20T15:14:20.702Z,29.30
2019-04-20T15:16:50.919Z,29.40
2019-04-20T15:19:23.309Z,29.50
2019-04-20T15:22:03.294Z,29.60
2019-04-20T15:24:33.529Z,29.80
2019-04-20T15:27:02.923Z,29.90
2019-04-20T15:29:32.581Z,30.10
2019-04-20T15:32:02.116Z,30.20
2019-04-20T15:34:32.901Z,30.10
2019-04-20T15:37:02.554Z,29.90
2019-04-20T15:39:32.908Z,29.60
2019-04-20T15:42:03.358Z,29.50
2019-04-20T15:44:33.461Z,29.40
2019-04-20T15:47:04.224Z,29.40
2019-04-20T15:49:33.808Z,29.50
2019-04-20T15:52:03.904Z,29.60
2019-04-20T15:54:33.869Z,29.70
2019-04-20T15:57:12.319Z,29.70
2019-04-20T15:59:34.744Z,29.80
2019-04-20T16:02:09.371Z,29.90
2019-04-20T16:04:48.720Z,30.00
2019-04-20T16:07:19.228Z,30.00
2019-04-20T16:09:48.649Z,29.90
2019-04-20T16:12:18.547Z,29.90
2019-04-20T16:14:49.301Z,29.60
2019-04-20T16:17:24.312Z,29.60
2019-04-20T16:20:00.353Z,29.50
2019-04-20T16:22:24.131Z,29.50
2019-04-20T16:24:55.762Z,29.50
2019-04-20T16:27:27.673Z,29.30
2019-04-20T16:29:57.774Z,29.10
2019-04-20T16:32:27.194Z,28.90
2019-04-20T16:35:00.340Z,28.70
2019-04-20T16:37:30.602Z,28.50
2019-04-20T16:40:00.813Z,28.20
2019-04-20T16:42:34.091Z,28.00
2019-04-20T16:45:05.377Z,27.80
2019-04-20T16:47:36.565Z,27.70
2019-04-20T16:50:07.238Z,27.60
2019-04-20T16:52:36.854Z,27.50
2019-04-20T16:55:08.083Z,27.40
2019-04-20T16:57:37.512Z,27.30
2019-04-20T17:00:07.542Z,27.20
2019-04-20T17:02:38.241Z,27.10
2019-04-20T17:05:09.290Z,27.00
2019-04-20T17:07:40.376Z,26.80
2019-04-20T17:10:11.972Z,26.70
2019-04-20T17:12:43.738Z,26.60
2019-04-20T17:15:14.113Z,26.60
2019-04-20T17:17:43.520Z,26.40
2019-04-20T17:20:14.072Z,26.30
2019-04-20T17:22:44.386Z,26.20
2019-04-20T17:25:16.327Z,25.90
2019-04-20T17:28:06.873Z,25.80
2019-04-20T17:30:42.015Z,25.70
2019-04-20T17:33:13.880Z,25.60
2019-04-20T17:35:53.131Z,25.60
2019-04-20T17:38:14.433Z,25.50
2019-04-20T17:40:59.930Z,25.50
2019-04-20T17:43:25.393Z,25.40
2019-04-20T17:45:55.787Z,25.30
2019-04-20T17:48:29.773Z,25.20
2019-04-20T17:51:12.272Z,25.10
2019-04-20T17:53:45.018Z,25.00
2019-04-20T17:56:09.180Z,24.80
2019-04-20T17:58:40.075Z,24.70
2019-04-20T18:01:26.812Z,24.50
2019-04-20T18:04:19.783Z,24.40
2019-04-20T18:06:39.394Z,24.20
2019-04-20T18:09:07.068Z,24.00
2019-04-20T18:11:27.470Z,23.80
2019-04-20T18:14:01.858Z,23.70
2019-04-20T18:16:50.841Z,23.50
2019-04-20T18:19:11.680Z,23.30
2019-04-20T18:21:40.161Z,23.20
2019-04-20T18:24:14.486Z,23.10
2019-04-20T18:26:59.664Z,23.00
2019-04-20T18:29:32.253Z,22.90
2019-04-20T18:31:43.733Z,22.70
2019-04-20T18:34:20.657Z,22.60
2019-04-20T18:36:50.817Z,22.50
2019-04-20T18:39:31.440Z,22.40
2019-04-20T18:41:55.508Z,22.30
2019-04-20T18:44:27.935Z,22.20
2019-04-20T18:47:13.866Z,22.20
2019-04-20T18:49:36.089Z,22.10
2019-04-20T18:51:55.559Z,22.00
2019-04-20T18:54:32.153Z,21.90
2019-04-20T18:56:58.418Z,21.80
2019-04-20T18:59:35.424Z,21.80
2019-04-20T19:02:00.906Z,21.70
2019-04-20T19:04:31.918Z,21.60
2019-04-20T19:07:01.712Z,21.50
2019-04-20T19:09:32.836Z,21.50
2019-04-20T19:12:05.655Z,21.40
2019-04-20T19:14:45.814Z,21.30
2019-04-20T19:17:20.802Z,21.20
2019-04-20T19:19:49.886Z,21.10
2019-04-20T19:22:17.567Z,21.10
2019-04-20T19:24:47.661Z,21.00
2019-04-20T19:27:18.946Z,21.00
2019-04-20T19:29:56.372Z,20.90
2019-04-20T19:32:34.689Z,20.80
2019-04-20T19:35:01.301Z,20.70
2019-04-20T19:37:28.952Z,20.70
2019-04-20T19:40:04.557Z,20.60
2019-04-20T19:42:34.904Z,20.50
2019-04-20T19:45:17.535Z,20.50
2019-04-20T19:47:46.262Z,20.40
2019-04-20T19:50:25.148Z,20.30
2019-04-20T19:52:53.155Z,20.30
2019-04-20T19:55:16.207Z,20.20
2019-04-20T19:57:45.233Z,20.20
2019-04-20T20:00:01.991Z,20.10
2019-04-20T20:02:33.882Z,20.00
2019-04-20T20:05:08.699Z,19.90
2019-04-20T20:07:38.755Z,19.90
2019-04-20T20:10:09.087Z,19.80
2019-04-20T20:12:41.268Z,19.70
2019-04-20T20:15:14.641Z,19.70
2019-04-20T20:18:00.308Z,19.60
2019-04-20T20:20:35.979Z,19.50
2019-04-20T20:22:49.516Z,19.50
2019-04-20T20:25:15.018Z,19.50
2019-04-20T20:27:52.413Z,19.40
2019-04-20T20:30:25.464Z,19.40
2019-04-20T20:33:04.742Z,19.30
2019-04-20T20:35:24.642Z,19.30
2019-04-20T20:37:55.704Z,19.30
2019-04-20T20:40:27.356Z,19.20
2019-04-20T20:43:06.188Z,19.20
2019-04-20T20:45:31.435Z,19.10
2019-04-20T20:48:09.430Z,19.00
2019-04-20T20:50:42.655Z,19.00
2019-04-20T20:53:05.111Z,18.90
2019-04-20T20:55:34.403Z,18.80
2019-04-20T20:58:05.262Z,18.80
2019-04-20T21:00:41.523Z,18.70
2019-04-20T21:03:03.923Z,18.70
2019-04-20T21:05:29.819Z,18.60
2019-04-20T21:07:59.680Z,18.60
2019-04-20T21:10:35.637Z,18.50
2019-04-20T21:13:03.433Z,18.40
2019-04-20T21:15:33.346Z,18.40
2019-04-20T21:18:29.023Z,18.30
2019-04-20T21:20:55.251Z,18.30
2019-04-20T21:23:18.717Z,18.30
2019-04-20T21:25:44.209Z,18.20
2019-04-20T21:28:10.909Z,18.10
2019-04-20T21:30:45.511Z,18.10
2019-04-20T21:33:13.216Z,18.00
2019-04-20T21:35:47.074Z,18.00
2019-04-20T21:38:16.598Z,17.90
2019-04-20T21:40:49.278Z,17.90
2019-04-20T21:43:16.297Z,17.90
2019-04-20T21:45:54.890Z,17.80
2019-04-20T21:48:34.057Z,17.80
2019-04-20T21:51:01.459Z,17.70
2019-04-20T21:53:24.977Z,17.70
2019-04-20T21:55:50.126Z,17.70
2019-04-20T21:58:29.697Z,17.60
2019-04-20T22:01:07.135Z,17.60
2019-04-20T22:03:24.899Z,17.60
2019-04-20T22:06:02.551Z,17.50
2019-04-20T22:08:32.711Z,17.50
2019-04-20T22:11:02.280Z,17.40
2019-04-20T22:13:37.669Z,17.40
2019-04-20T22:16:07.194Z,17.40
2019-04-20T22:18:47.395Z,17.30
2019-04-20T22:21:15.932Z,17.30
2019-04-20T22:23:53.086Z,17.30
2019-04-20T22:26:18.749Z,17.20
2019-04-20T22:28:38.258Z,17.20
2019-04-20T22:31:08.221Z,17.20
2019-04-20T22:33:42.776Z,17.10
2019-04-20T22:36:12.728Z,17.10
2019-04-20T22:39:00.254Z,17.10
2019-04-20T22:41:32.327Z,17.00
2019-04-20T22:44:08.602Z,17.00
2019-04-20T22:46:35.717Z,17.00
2019-04-20T22:49:25.432Z,16.90
2019-04-20T22:51:48.270Z,16.90
2019-04-20T22:54:23.192Z,16.80
2019-04-20T22:56:50.881Z,16.80
2019-04-20T22:59:13.907Z,16.80
2019-04-20T23:01:45.735Z,16.70
2019-04-20T23:04:10.752Z,16.70
2019-04-20T23:06:44.709Z,16.60
2019-04-20T23:09:14.794Z,16.60
2019-04-20T23:11:42.689Z,16.60
2019-04-20T23:14:14.294Z,16.50
2019-04-20T23:16:48.350Z,16.40
2019-04-20T23:19:28.172Z,16.30
2019-04-20T23:21:52.337Z,16.30
2019-04-20T23:24:18.872Z,16.20
2019-04-20T23:26:50.450Z,16.10
2019-04-20T23:29:22.696Z,16.00
2019-04-20T23:31:56.939Z,15.90
2019-04-20T23:34:25.565Z,15.80
2019-04-20T23:36:52.670Z,15.70
2019-04-20T23:39:23.300Z,15.60
2019-04-20T23:41:58.662Z,15.50
2019-04-20T23:44:45.842Z,15.40
2019-04-20T23:47:25.636Z,15.30
2019-04-20T23:50:12.114Z,15.20
2019-04-20T23:52:49.027Z,15.00
2019-04-20T23:55:04.995Z,15.00
2019-04-20T23:57:31.657Z,14.90
